sensor_id;sensor_type;location;lat;lon;timestamp;temperature;humidity
30037;DHT22;36325;51.512;-0.382;2023-02-17T00:01:22;11.70;99.90
30037;DHT22;36325;51.512;-0.382;2023-02-17T00:03:50;11.60;99.90
30037;DHT22;36325;51.512;-0.382;2023-02-17T00:06:20;11.70;99.90
30037;DHT22;36325;51.512;-0.382;2023-02-17T00:08:48;11.70;99.90
30037;DHT22;36325;51.512;-0.382;2023-02-17T00:11:16;11.70;99.90
30037;DHT22;36325;51.512;-0.382;2023-02-17T00:13:44;11.70;99.90
30037;DHT22;36325;51.512;-0.382;2023-02-17T00:16:17;11.70;99.90
30037;DHT22;36325;51.512;-0.382;2023-02-17T00:18:46;11.80;99.90
30037;DHT22;36325;51.512;-0.382;2023-02-17T00:21:15;11.80;99.90
30037;DHT22;36325;51.512;-0.382;2023-02-17T00:23:43;11.80;99.90
30037;DHT22;36325;51.512;-0.382;2023-02-17T00:26:11;11.80;99.90
30037;DHT22;36325;51.512;-0.382;2023-02-17T00:31:14;11.80;99.90
30037;DHT22;36325;51.512;-0.382;2023-02-17T00:33:42;11.80;99.90
30037;DHT22;36325;51.512;-0.382;2023-02-17T00:36:12;11.80;99.90
30037;DHT22;36325;51.512;-0.382;2023-02-17T00:38:39;11.90;99.90
30037;DHT22;36325;51.512;-0.382;2023-02-17T00:41:06;11.80;99.90
30037;DHT22;36325;51.512;-0.382;2023-02-17T00:43:33;11.90;99.90
30037;DHT22;36325;51.512;-0.382;2023-02-17T00:46:00;11.90;99.90
30037;DHT22;36325;51.512;-0.382;2023-02-17T00:48:30;11.90;99.90
30037;DHT22;36325;51.512;-0.382;2023-02-17T00:50:58;11.90;99.90
30037;DHT22;36325;51.512;-0.382;2023-02-17T00:53:25;11.90;99.90
30037;DHT22;36325;51.512;-0.382;2023-02-17T00:55:53;11.90;99.90
30037;DHT22;36325;51.512;-0.382;2023-02-17T00:58:20;11.90;99.90
30037;DHT22;36325;51.512;-0.382;2023-02-17T01:00:47;12.00;99.90
30037;DHT22;36325;51.512;-0.382;2023-02-17T01:03:15;12.00;99.90
30037;DHT22;36325;51.512;-0.382;2023-02-17T01:05:46;12.00;99.90
30037;DHT22;36325;51.512;-0.382;2023-02-17T01:08:15;12.00;99.90
30037;DHT22;36325;51.512;-0.382;2023-02-17T01:10:45;12.00;99.90
30037;DHT22;36325;51.512;-0.382;2023-02-17T01:13:13;12.00;99.90
30037;DHT22;36325;51.512;-0.382;2023-02-17T01:15:43;12.10;99.90
30037;DHT22;36325;51.512;-0.382;2023-02-17T01:18:12;12.10;99.90
30037;DHT22;36325;51.512;-0.382;2023-02-17T01:20:40;12.10;99.90
30037;DHT22;36325;51.512;-0.382;2023-02-17T01:23:08;12.10;99.90
30037;DHT22;36325;51.512;-0.382;2023-02-17T01:25:41;12.10;99.90
30037;DHT22;36325;51.512;-0.382;2023-02-17T01:28:13;12.20;99.90
30037;DHT22;36325;51.512;-0.382;2023-02-17T01:30:40;12.20;99.90
30037;DHT22;36325;51.512;-0.382;2023-02-17T01:33:08;12.20;99.90
30037;DHT22;36325;51.512;-0.382;2023-02-17T01:35:35;12.10;99.90
30037;DHT22;36325;51.512;-0.382;2023-02-17T01:38:03;12.20;99.90
30037;DHT22;36325;51.512;-0.382;2023-02-17T01:40:30;12.20;99.90
30037;DHT22;36325;51.512;-0.382;2023-02-17T01:42:58;10.60;99.90
30037;DHT22;36325;51.512;-0.382;2023-02-17T01:45:40;12.10;99.90
30037;DHT22;36325;51.512;-0.382;2023-02-17T01:48:14;12.20;99.90
30037;DHT22;36325;51.512;-0.382;2023-02-17T01:50:47;12.20;99.90
30037;DHT22;36325;51.512;-0.382;2023-02-17T01:53:22;12.10;99.90
30037;DHT22;36325;51.512;-0.382;2023-02-17T01:55:53;12.20;99.90
30037;DHT22;36325;51.512;-0.382;2023-02-17T01:58:22;12.10;99.90
30037;DHT22;36325;51.512;-0.382;2023-02-17T02:00:51;12.20;99.90
30037;DHT22;36325;51.512;-0.382;2023-02-17T02:03:21;12.10;99.90
30037;DHT22;36325;51.512;-0.382;2023-02-17T02:05:50;12.10;99.90
30037;DHT22;36325;51.512;-0.382;2023-02-17T02:08:17;12.20;99.90
30037;DHT22;36325;51.512;-0.382;2023-02-17T02:10:44;12.20;99.90
30037;DHT22;36325;51.512;-0.382;2023-02-17T02:13:12;12.20;99.90
30037;DHT22;36325;51.512;-0.382;2023-02-17T02:15:53;12.20;99.90
30037;DHT22;36325;51.512;-0.382;2023-02-17T02:18:52;12.20;99.90
30037;DHT22;36325;51.512;-0.382;2023-02-17T02:33:10;12.20;99.90
30037;DHT22;36325;51.512;-0.382;2023-02-17T02:35:31;12.20;99.90
30037;DHT22;36325;51.512;-0.382;2023-02-17T02:38:21;12.20;99.90
30037;DHT22;36325;51.512;-0.382;2023-02-17T02:41:01;12.30;99.90
30037;DHT22;36325;51.512;-0.382;2023-02-17T02:43:30;12.30;99.90
30037;DHT22;36325;51.512;-0.382;2023-02-17T02:45:58;12.30;99.90
30037;DHT22;36325;51.512;-0.382;2023-02-17T02:48:26;12.30;99.90
30037;DHT22;36325;51.512;-0.382;2023-02-17T02:53:55;12.30;99.90
30037;DHT22;36325;51.512;-0.382;2023-02-17T02:56:34;12.40;99.90
30037;DHT22;36325;51.512;-0.382;2023-02-17T03:02:41;12.40;99.90
30037;DHT22;36325;51.512;-0.382;2023-02-17T03:08:07;12.40;99.90
30037;DHT22;36325;51.512;-0.382;2023-02-17T03:10:52;12.50;99.90
30037;DHT22;36325;51.512;-0.382;2023-02-17T03:13:20;12.40;99.90
30037;DHT22;36325;51.512;-0.382;2023-02-17T03:15:48;12.50;99.90
30037;DHT22;36325;51.512;-0.382;2023-02-17T03:18:16;12.50;99.90
30037;DHT22;36325;51.512;-0.382;2023-02-17T03:21:05;12.50;99.90
30037;DHT22;36325;51.512;-0.382;2023-02-17T03:23:35;12.50;99.90
30037;DHT22;36325;51.512;-0.382;2023-02-17T03:28:31;12.40;99.90
30037;DHT22;36325;51.512;-0.382;2023-02-17T03:33:27;12.40;99.90
30037;DHT22;36325;51.512;-0.382;2023-02-17T03:35:54;12.40;99.90
30037;DHT22;36325;51.512;-0.382;2023-02-17T03:38:21;12.40;99.90
30037;DHT22;36325;51.512;-0.382;2023-02-17T03:43:16;12.40;99.90
30037;DHT22;36325;51.512;-0.382;2023-02-17T03:48:14;12.40;99.90
30037;DHT22;36325;51.512;-0.382;2023-02-17T03:50:41;12.40;99.90
30037;DHT22;36325;51.512;-0.382;2023-02-17T03:53:10;12.40;99.90
30037;DHT22;36325;51.512;-0.382;2023-02-17T03:55:37;12.40;99.90
30037;DHT22;36325;51.512;-0.382;2023-02-17T03:58:05;12.50;99.90
30037;DHT22;36325;51.512;-0.382;2023-02-17T04:00:32;12.40;99.90
30037;DHT22;36325;51.512;-0.382;2023-02-17T04:03:00;12.40;99.90
30037;DHT22;36325;51.512;-0.382;2023-02-17T04:05:27;12.40;99.90
30037;DHT22;36325;51.512;-0.382;2023-02-17T04:07:54;12.40;99.90
30037;DHT22;36325;51.512;-0.382;2023-02-17T04:10:21;12.30;99.90
30037;DHT22;36325;51.512;-0.382;2023-02-17T04:12:49;12.30;99.90
30037;DHT22;36325;51.512;-0.382;2023-02-17T04:15:16;12.30;99.90
30037;DHT22;36325;51.512;-0.382;2023-02-17T04:17:43;12.20;99.90
30037;DHT22;36325;51.512;-0.382;2023-02-17T04:20:10;12.20;99.90
30037;DHT22;36325;51.512;-0.382;2023-02-17T04:22:38;12.30;99.90
30037;DHT22;36325;51.512;-0.382;2023-02-17T04:25:05;12.30;99.90
30037;DHT22;36325;51.512;-0.382;2023-02-17T04:27:32;12.30;99.90
30037;DHT22;36325;51.512;-0.382;2023-02-17T04:30:00;12.30;99.90
30037;DHT22;36325;51.512;-0.382;2023-02-17T04:32:27;12.30;99.90
30037;DHT22;36325;51.512;-0.382;2023-02-17T04:34:54;12.30;99.90
30037;DHT22;36325;51.512;-0.382;2023-02-17T04:37:21;12.30;99.90
30037;DHT22;36325;51.512;-0.382;2023-02-17T04:39:49;12.40;99.90
30037;DHT22;36325;51.512;-0.382;2023-02-17T04:42:16;12.40;99.90
30037;DHT22;36325;51.512;-0.382;2023-02-17T04:44:43;12.40;99.90
30037;DHT22;36325;51.512;-0.382;2023-02-17T04:47:11;12.40;99.90
30037;DHT22;36325;51.512;-0.382;2023-02-17T04:49:38;12.40;99.90
30037;DHT22;36325;51.512;-0.382;2023-02-17T04:52:05;12.50;99.90
30037;DHT22;36325;51.512;-0.382;2023-02-17T04:54:32;12.50;99.90
30037;DHT22;36325;51.512;-0.382;2023-02-17T04:56:59;12.40;99.90
30037;DHT22;36325;51.512;-0.382;2023-02-17T04:59:26;12.50;99.90
30037;DHT22;36325;51.512;-0.382;2023-02-17T05:01:54;12.50;99.90
30037;DHT22;36325;51.512;-0.382;2023-02-17T05:04:21;12.50;99.90
30037;DHT22;36325;51.512;-0.382;2023-02-17T05:06:48;12.50;99.90
30037;DHT22;36325;51.512;-0.382;2023-02-17T05:09:15;12.50;99.90
30037;DHT22;36325;51.512;-0.382;2023-02-17T05:11:42;12.50;99.90
30037;DHT22;36325;51.512;-0.382;2023-02-17T05:14:10;12.50;99.90
30037;DHT22;36325;51.512;-0.382;2023-02-17T05:16:37;12.50;99.90
30037;DHT22;36325;51.512;-0.382;2023-02-17T05:19:04;12.40;99.90
30037;DHT22;36325;51.512;-0.382;2023-02-17T05:21:32;12.40;99.90
30037;DHT22;36325;51.512;-0.382;2023-02-17T05:24:01;12.40;99.90
30037;DHT22;36325;51.512;-0.382;2023-02-17T05:26:28;12.30;99.90
30037;DHT22;36325;51.512;-0.382;2023-02-17T05:28:56;12.30;99.90
30037;DHT22;36325;51.512;-0.382;2023-02-17T05:31:23;12.20;99.90
30037;DHT22;36325;51.512;-0.382;2023-02-17T05:33:52;12.20;99.90
30037;DHT22;36325;51.512;-0.382;2023-02-17T05:36:20;12.20;99.90
30037;DHT22;36325;51.512;-0.382;2023-02-17T05:38:47;12.20;99.90
30037;DHT22;36325;51.512;-0.382;2023-02-17T05:41:16;12.20;99.90
30037;DHT22;36325;51.512;-0.382;2023-02-17T05:43:44;12.20;99.90
30037;DHT22;36325;51.512;-0.382;2023-02-17T05:46:12;12.20;99.90
30037;DHT22;36325;51.512;-0.382;2023-02-17T05:48:39;12.20;99.90
30037;DHT22;36325;51.512;-0.382;2023-02-17T05:51:19;12.10;99.90
30037;DHT22;36325;51.512;-0.382;2023-02-17T05:53:51;12.10;99.90
30037;DHT22;36325;51.512;-0.382;2023-02-17T05:56:19;12.10;99.90
30037;DHT22;36325;51.512;-0.382;2023-02-17T05:58:46;12.10;99.90
30037;DHT22;36325;51.512;-0.382;2023-02-17T06:03:41;12.00;99.90
30037;DHT22;36325;51.512;-0.382;2023-02-17T06:06:08;12.00;99.90
30037;DHT22;36325;51.512;-0.382;2023-02-17T06:08:35;12.00;99.90
30037;DHT22;36325;51.512;-0.382;2023-02-17T06:11:03;12.00;99.90
30037;DHT22;36325;51.512;-0.382;2023-02-17T06:15:58;11.90;99.90
30037;DHT22;36325;51.512;-0.382;2023-02-17T06:18:25;11.90;99.90
30037;DHT22;36325;51.512;-0.382;2023-02-17T06:20:54;11.90;99.90
30037;DHT22;36325;51.512;-0.382;2023-02-17T06:23:23;11.90;99.90
30037;DHT22;36325;51.512;-0.382;2023-02-17T06:25:51;11.80;99.90
30037;DHT22;36325;51.512;-0.382;2023-02-17T06:28:19;11.80;99.90
30037;DHT22;36325;51.512;-0.382;2023-02-17T06:30:46;11.80;99.90
30037;DHT22;36325;51.512;-0.382;2023-02-17T06:33:13;11.80;99.90
30037;DHT22;36325;51.512;-0.382;2023-02-17T06:35:41;11.80;99.90
30037;DHT22;36325;51.512;-0.382;2023-02-17T06:38:10;11.80;99.90
30037;DHT22;36325;51.512;-0.382;2023-02-17T06:40:37;11.80;99.90
30037;DHT22;36325;51.512;-0.382;2023-02-17T06:43:05;11.70;99.90
30037;DHT22;36325;51.512;-0.382;2023-02-17T06:45:33;11.70;99.90
30037;DHT22;36325;51.512;-0.382;2023-02-17T06:48:00;11.70;99.90
30037;DHT22;36325;51.512;-0.382;2023-02-17T06:50:27;11.70;99.90
30037;DHT22;36325;51.512;-0.382;2023-02-17T06:52:55;11.70;99.90
30037;DHT22;36325;51.512;-0.382;2023-02-17T06:55:22;11.70;99.90
30037;DHT22;36325;51.512;-0.382;2023-02-17T06:57:49;11.70;99.90
30037;DHT22;36325;51.512;-0.382;2023-02-17T07:00:17;11.70;99.90
30037;DHT22;36325;51.512;-0.382;2023-02-17T07:02:45;11.70;99.90
30037;DHT22;36325;51.512;-0.382;2023-02-17T07:05:12;11.70;99.90
30037;DHT22;36325;51.512;-0.382;2023-02-17T07:07:40;11.70;99.90
30037;DHT22;36325;51.512;-0.382;2023-02-17T07:10:08;11.70;99.90
30037;DHT22;36325;51.512;-0.382;2023-02-17T07:12:35;11.70;99.90
30037;DHT22;36325;51.512;-0.382;2023-02-17T07:15:03;11.70;99.90
30037;DHT22;36325;51.512;-0.382;2023-02-17T07:17:41;11.70;99.90
30037;DHT22;36325;51.512;-0.382;2023-02-17T07:20:12;11.70;99.90
30037;DHT22;36325;51.512;-0.382;2023-02-17T07:22:40;11.80;99.90
30037;DHT22;36325;51.512;-0.382;2023-02-17T07:25:07;11.70;99.90
30037;DHT22;36325;51.512;-0.382;2023-02-17T07:27:36;11.70;99.90
30037;DHT22;36325;51.512;-0.382;2023-02-17T07:30:05;11.80;99.90
30037;DHT22;36325;51.512;-0.382;2023-02-17T07:32:33;11.80;99.90
30037;DHT22;36325;51.512;-0.382;2023-02-17T07:35:01;11.80;99.90
30037;DHT22;36325;51.512;-0.382;2023-02-17T07:37:28;11.80;99.90
30037;DHT22;36325;51.512;-0.382;2023-02-17T07:39:56;11.80;99.90
30037;DHT22;36325;51.512;-0.382;2023-02-17T07:42:23;11.70;99.90
30037;DHT22;36325;51.512;-0.382;2023-02-17T07:44:54;11.80;99.90
30037;DHT22;36325;51.512;-0.382;2023-02-17T07:47:21;11.80;99.90
30037;DHT22;36325;51.512;-0.382;2023-02-17T07:49:48;11.80;99.90
30037;DHT22;36325;51.512;-0.382;2023-02-17T07:52:16;11.90;99.90
30037;DHT22;36325;51.512;-0.382;2023-02-17T07:54:58;11.90;99.90
30037;DHT22;36325;51.512;-0.382;2023-02-17T07:59:53;12.00;99.90
30037;DHT22;36325;51.512;-0.382;2023-02-17T08:02:21;12.00;99.90
30037;DHT22;36325;51.512;-0.382;2023-02-17T08:04:50;12.10;99.90
30037;DHT22;36325;51.512;-0.382;2023-02-17T08:07:18;12.10;99.90
30037;DHT22;36325;51.512;-0.382;2023-02-17T08:09:46;12.10;99.90
30037;DHT22;36325;51.512;-0.382;2023-02-17T08:12:33;12.10;99.90
30037;DHT22;36325;51.512;-0.382;2023-02-17T08:15:19;12.10;99.90
30037;DHT22;36325;51.512;-0.382;2023-02-17T08:17:47;12.10;99.90
30037;DHT22;36325;51.512;-0.382;2023-02-17T08:20:17;12.10;99.90
30037;DHT22;36325;51.512;-0.382;2023-02-17T08:22:44;12.10;99.90
30037;DHT22;36325;51.512;-0.382;2023-02-17T08:27:40;12.10;99.90
30037;DHT22;36325;51.512;-0.382;2023-02-17T08:30:08;12.10;99.90
30037;DHT22;36325;51.512;-0.382;2023-02-17T08:32:36;12.10;99.90
30037;DHT22;36325;51.512;-0.382;2023-02-17T08:35:06;12.20;99.90
30037;DHT22;36325;51.512;-0.382;2023-02-17T08:37:34;12.20;99.90
30037;DHT22;36325;51.512;-0.382;2023-02-17T08:40:01;12.30;99.90
30037;DHT22;36325;51.512;-0.382;2023-02-17T08:42:30;12.30;99.90
30037;DHT22;36325;51.512;-0.382;2023-02-17T08:44:58;12.40;99.90
30037;DHT22;36325;51.512;-0.382;2023-02-17T08:47:25;12.40;99.90
30037;DHT22;36325;51.512;-0.382;2023-02-17T08:49:53;12.40;99.90
30037;DHT22;36325;51.512;-0.382;2023-02-17T08:52:21;12.40;99.90
30037;DHT22;36325;51.512;-0.382;2023-02-17T08:54:48;12.40;99.90
30037;DHT22;36325;51.512;-0.382;2023-02-17T08:57:21;12.50;99.90
30037;DHT22;36325;51.512;-0.382;2023-02-17T08:59:49;12.50;99.90
30037;DHT22;36325;51.512;-0.382;2023-02-17T09:02:16;12.60;99.90
30037;DHT22;36325;51.512;-0.382;2023-02-17T09:04:44;12.60;99.90
30037;DHT22;36325;51.512;-0.382;2023-02-17T09:07:13;12.60;99.90
30037;DHT22;36325;51.512;-0.382;2023-02-17T09:09:41;12.50;99.90
30037;DHT22;36325;51.512;-0.382;2023-02-17T09:12:08;12.50;99.90
30037;DHT22;36325;51.512;-0.382;2023-02-17T09:14:36;12.50;99.90
30037;DHT22;36325;51.512;-0.382;2023-02-17T09:17:04;12.50;99.90
30037;DHT22;36325;51.512;-0.382;2023-02-17T09:19:38;12.50;99.90
30037;DHT22;36325;51.512;-0.382;2023-02-17T09:22:07;12.50;99.90
30037;DHT22;36325;51.512;-0.382;2023-02-17T09:24:45;12.50;99.90
30037;DHT22;36325;51.512;-0.382;2023-02-17T09:27:16;12.50;99.90
30037;DHT22;36325;51.512;-0.382;2023-02-17T09:29:44;12.50;99.90
30037;DHT22;36325;51.512;-0.382;2023-02-17T09:32:14;12.50;99.90
30037;DHT22;36325;51.512;-0.382;2023-02-17T09:34:41;12.50;99.90
30037;DHT22;36325;51.512;-0.382;2023-02-17T09:37:19;12.50;99.90
30037;DHT22;36325;51.512;-0.382;2023-02-17T09:39:48;12.50;99.90
30037;DHT22;36325;51.512;-0.382;2023-02-17T09:42:21;12.50;99.90
30037;DHT22;36325;51.512;-0.382;2023-02-17T09:44:56;12.60;99.90
30037;DHT22;36325;51.512;-0.382;2023-02-17T09:47:37;12.60;99.90
30037;DHT22;36325;51.512;-0.382;2023-02-17T09:50:12;12.60;99.90
30037;DHT22;36325;51.512;-0.382;2023-02-17T09:55:37;12.70;99.90
30037;DHT22;36325;51.512;-0.382;2023-02-17T09:58:17;12.80;99.90
30037;DHT22;36325;51.512;-0.382;2023-02-17T10:00:57;12.80;99.90
30037;DHT22;36325;51.512;-0.382;2023-02-17T10:03:42;12.90;99.90
30037;DHT22;36325;51.512;-0.382;2023-02-17T10:06:27;12.90;99.90
30037;DHT22;36325;51.512;-0.382;2023-02-17T10:09:14;12.90;99.90
30037;DHT22;36325;51.512;-0.382;2023-02-17T10:12:00;13.00;99.90
30037;DHT22;36325;51.512;-0.382;2023-02-17T10:14:42;13.00;99.90
30037;DHT22;36325;51.512;-0.382;2023-02-17T10:17:28;13.10;99.90
30037;DHT22;36325;51.512;-0.382;2023-02-17T10:20:11;13.20;99.90
30037;DHT22;36325;51.512;-0.382;2023-02-17T10:22:45;13.20;99.90
30037;DHT22;36325;51.512;-0.382;2023-02-17T10:25:19;13.20;99.90
30037;DHT22;36325;51.512;-0.382;2023-02-17T10:28:08;13.30;99.90
30037;DHT22;36325;51.512;-0.382;2023-02-17T10:33:22;13.30;99.90
30037;DHT22;36325;51.512;-0.382;2023-02-17T10:35:58;13.30;99.90
30037;DHT22;36325;51.512;-0.382;2023-02-17T10:41:04;13.50;99.90
30037;DHT22;36325;51.512;-0.382;2023-02-17T10:43:32;13.50;99.90
30037;DHT22;36325;51.512;-0.382;2023-02-17T10:46:04;13.50;99.90
30037;DHT22;36325;51.512;-0.382;2023-02-17T10:48:59;13.60;99.90
30037;DHT22;36325;51.512;-0.382;2023-02-17T10:51:29;13.60;99.90
30037;DHT22;36325;51.512;-0.382;2023-02-17T10:54:21;13.70;99.90
30037;DHT22;36325;51.512;-0.382;2023-02-17T10:56:54;13.60;99.90
30037;DHT22;36325;51.512;-0.382;2023-02-17T10:59:38;13.70;99.90
30037;DHT22;36325;51.512;-0.382;2023-02-17T11:02:34;13.70;99.90
30037;DHT22;36325;51.512;-0.382;2023-02-17T11:05:04;13.70;99.90
30037;DHT22;36325;51.512;-0.382;2023-02-17T11:07:35;13.70;99.90
30037;DHT22;36325;51.512;-0.382;2023-02-17T11:12:48;13.80;99.90
30037;DHT22;36325;51.512;-0.382;2023-02-17T11:15:22;13.80;99.90
30037;DHT22;36325;51.512;-0.382;2023-02-17T11:17:55;13.80;99.90
30037;DHT22;36325;51.512;-0.382;2023-02-17T11:20:33;13.80;99.90
30037;DHT22;36325;51.512;-0.382;2023-02-17T11:25:43;13.90;99.90
30037;DHT22;36325;51.512;-0.382;2023-02-17T11:28:22;13.90;99.90
30037;DHT22;36325;51.512;-0.382;2023-02-17T11:30:55;13.90;99.90
30037;DHT22;36325;51.512;-0.382;2023-02-17T11:33:35;13.90;99.90
30037;DHT22;36325;51.512;-0.382;2023-02-17T11:36:05;14.00;99.90
30037;DHT22;36325;51.512;-0.382;2023-02-17T11:38:42;14.00;99.90
30037;DHT22;36325;51.512;-0.382;2023-02-17T11:41:11;13.90;99.90
30037;DHT22;36325;51.512;-0.382;2023-02-17T11:43:54;14.00;99.90
30037;DHT22;36325;51.512;-0.382;2023-02-17T12:17:42;14.20;99.90
30037;DHT22;36325;51.512;-0.382;2023-02-17T12:23:16;14.20;99.90
30037;DHT22;36325;51.512;-0.382;2023-02-17T12:26:01;14.30;99.90
30037;DHT22;36325;51.512;-0.382;2023-02-17T12:34:41;14.40;99.90
30037;DHT22;36325;51.512;-0.382;2023-02-17T12:37:37;14.50;99.90
30037;DHT22;36325;51.512;-0.382;2023-02-17T12:40:37;14.50;99.90
30037;DHT22;36325;51.512;-0.382;2023-02-17T12:43:18;14.60;99.90
30037;DHT22;36325;51.512;-0.382;2023-02-17T12:45:53;14.60;99.90
30037;DHT22;36325;51.512;-0.382;2023-02-17T12:48:45;14.60;99.90
30037;DHT22;36325;51.512;-0.382;2023-02-17T12:53:56;14.60;99.90
30037;DHT22;36325;51.512;-0.382;2023-02-17T12:57:24;15.00;99.90
30037;DHT22;36325;51.512;-0.382;2023-02-17T12:59:57;15.30;99.90
30037;DHT22;36325;51.512;-0.382;2023-02-17T13:02:27;15.20;99.90
30037;DHT22;36325;51.512;-0.382;2023-02-17T13:05:10;15.30;99.90
30037;DHT22;36325;51.512;-0.382;2023-02-17T13:07:48;15.30;99.90
30037;DHT22;36325;51.512;-0.382;2023-02-17T13:10:36;15.30;99.90
30037;DHT22;36325;51.512;-0.382;2023-02-17T13:13:24;15.40;99.90
30037;DHT22;36325;51.512;-0.382;2023-02-17T13:16:11;16.10;99.90
30037;DHT22;36325;51.512;-0.382;2023-02-17T13:18:44;16.10;99.90
30037;DHT22;36325;51.512;-0.382;2023-02-17T13:24:05;15.70;99.90
30037;DHT22;36325;51.512;-0.382;2023-02-17T13:26:40;16.10;99.90
30037;DHT22;36325;51.512;-0.382;2023-02-17T13:34:39;16.20;99.90
30037;DHT22;36325;51.512;-0.382;2023-02-17T13:37:38;16.30;99.90
30037;DHT22;36325;51.512;-0.382;2023-02-17T13:42:56;16.50;99.90
30037;DHT22;36325;51.512;-0.382;2023-02-17T13:48:29;16.80;99.90
30037;DHT22;36325;51.512;-0.382;2023-02-17T13:51:00;16.70;99.90
30037;DHT22;36325;51.512;-0.382;2023-02-17T13:53:40;16.80;99.90
30037;DHT22;36325;51.512;-0.382;2023-02-17T13:56:28;16.70;99.90
30037;DHT22;36325;51.512;-0.382;2023-02-17T13:59:15;16.60;99.90
30037;DHT22;36325;51.512;-0.382;2023-02-17T14:01:46;17.20;99.90
30037;DHT22;36325;51.512;-0.382;2023-02-17T14:04:28;17.20;99.90
30037;DHT22;36325;51.512;-0.382;2023-02-17T14:07:02;17.70;99.90
30037;DHT22;36325;51.512;-0.382;2023-02-17T14:09:33;17.80;99.90
30037;DHT22;36325;51.512;-0.382;2023-02-17T14:12:04;18.00;99.90
30037;DHT22;36325;51.512;-0.382;2023-02-17T14:14:37;17.70;99.90
30037;DHT22;36325;51.512;-0.382;2023-02-17T14:17:25;17.50;99.90
30037;DHT22;36325;51.512;-0.382;2023-02-17T14:19:57;17.80;99.90
30037;DHT22;36325;51.512;-0.382;2023-02-17T14:22:41;18.30;99.90
30037;DHT22;36325;51.512;-0.382;2023-02-17T14:25:29;19.10;99.90
30037;DHT22;36325;51.512;-0.382;2023-02-17T14:28:02;19.00;99.90
30037;DHT22;36325;51.512;-0.382;2023-02-17T14:30:37;19.40;99.90
30037;DHT22;36325;51.512;-0.382;2023-02-17T14:35:54;19.10;99.90
30037;DHT22;36325;51.512;-0.382;2023-02-17T14:38:40;19.50;99.90
30037;DHT22;36325;51.512;-0.382;2023-02-17T14:41:09;19.50;99.90
30037;DHT22;36325;51.512;-0.382;2023-02-17T14:43:37;19.20;99.90
30037;DHT22;36325;51.512;-0.382;2023-02-17T14:46:04;19.00;99.90
30037;DHT22;36325;51.512;-0.382;2023-02-17T14:48:34;18.50;99.90
30037;DHT22;36325;51.512;-0.382;2023-02-17T14:51:15;18.00;99.90
30037;DHT22;36325;51.512;-0.382;2023-02-17T14:53:43;17.60;99.90
30037;DHT22;36325;51.512;-0.382;2023-02-17T14:56:31;17.70;99.90
30037;DHT22;36325;51.512;-0.382;2023-02-17T14:59:08;17.50;99.90
30037;DHT22;36325;51.512;-0.382;2023-02-17T15:01:38;17.30;99.90
30037;DHT22;36325;51.512;-0.382;2023-02-17T15:04:20;17.00;99.90
30037;DHT22;36325;51.512;-0.382;2023-02-17T15:06:50;16.50;99.90
30037;DHT22;36325;51.512;-0.382;2023-02-17T15:09:35;16.30;99.90
30037;DHT22;36325;51.512;-0.382;2023-02-17T15:12:04;16.20;99.90
30037;DHT22;36325;51.512;-0.382;2023-02-17T15:14:35;16.20;99.90
30037;DHT22;36325;51.512;-0.382;2023-02-17T15:17:17;16.40;99.90
30037;DHT22;36325;51.512;-0.382;2023-02-17T15:19:48;17.20;99.90
30037;DHT22;36325;51.512;-0.382;2023-02-17T15:22:16;17.80;99.90
30037;DHT22;36325;51.512;-0.382;2023-02-17T15:24:44;18.10;99.90
30037;DHT22;36325;51.512;-0.382;2023-02-17T15:27:13;17.70;99.90
30037;DHT22;36325;51.512;-0.382;2023-02-17T15:29:44;17.80;99.90
30037;DHT22;36325;51.512;-0.382;2023-02-17T15:38:36;16.90;99.90
30037;DHT22;36325;51.512;-0.382;2023-02-17T15:41:12;16.90;99.90
30037;DHT22;36325;51.512;-0.382;2023-02-17T15:43:40;16.80;99.90
30037;DHT22;36325;51.512;-0.382;2023-02-17T15:46:29;16.60;99.90
30037;DHT22;36325;51.512;-0.382;2023-02-17T15:48:59;16.20;99.90
30037;DHT22;36325;51.512;-0.382;2023-02-17T15:51:33;15.60;99.90
30037;DHT22;36325;51.512;-0.382;2023-02-17T15:54:01;15.60;99.90
30037;DHT22;36325;51.512;-0.382;2023-02-17T15:56:48;15.50;99.90
30037;DHT22;36325;51.512;-0.382;2023-02-17T15:59:25;15.50;99.90
30037;DHT22;36325;51.512;-0.382;2023-02-17T16:01:54;15.30;99.90
30037;DHT22;36325;51.512;-0.382;2023-02-17T16:04:29;15.10;99.90
30037;DHT22;36325;51.512;-0.382;2023-02-17T16:07:11;15.00;99.90
30037;DHT22;36325;51.512;-0.382;2023-02-17T16:09:40;14.90;99.90
30037;DHT22;36325;51.512;-0.382;2023-02-17T16:12:19;14.70;99.90
30037;DHT22;36325;51.512;-0.382;2023-02-17T16:14:56;14.70;99.90
30037;DHT22;36325;51.512;-0.382;2023-02-17T16:17:24;14.70;99.90
30037;DHT22;36325;51.512;-0.382;2023-02-17T16:19:56;14.60;99.90
30037;DHT22;36325;51.512;-0.382;2023-02-17T16:22:37;14.50;99.90
30037;DHT22;36325;51.512;-0.382;2023-02-17T16:25:09;14.50;99.90
30037;DHT22;36325;51.512;-0.382;2023-02-17T16:27:38;14.50;99.90
30037;DHT22;36325;51.512;-0.382;2023-02-17T16:30:33;14.40;99.90
30037;DHT22;36325;51.512;-0.382;2023-02-17T16:33:28;14.40;99.90
30037;DHT22;36325;51.512;-0.382;2023-02-17T16:35:59;14.40;99.90
30037;DHT22;36325;51.512;-0.382;2023-02-17T16:38:27;14.30;99.90
30037;DHT22;36325;51.512;-0.382;2023-02-17T16:41:10;14.20;99.90
30037;DHT22;36325;51.512;-0.382;2023-02-17T16:43:42;14.20;99.90
30037;DHT22;36325;51.512;-0.382;2023-02-17T16:46:36;14.20;99.90
30037;DHT22;36325;51.512;-0.382;2023-02-17T16:49:24;14.10;99.90
30037;DHT22;36325;51.512;-0.382;2023-02-17T16:52:12;14.10;99.90
30037;DHT22;36325;51.512;-0.382;2023-02-17T16:54:47;14.00;99.90
30037;DHT22;36325;51.512;-0.382;2023-02-17T16:57:29;14.00;99.90
30037;DHT22;36325;51.512;-0.382;2023-02-17T16:59:59;13.90;99.90
30037;DHT22;36325;51.512;-0.382;2023-02-17T17:02:34;13.90;99.90
30037;DHT22;36325;51.512;-0.382;2023-02-17T17:05:03;13.80;99.90
30037;DHT22;36325;51.512;-0.382;2023-02-17T17:11:23;13.70;99.90
30037;DHT22;36325;51.512;-0.382;2023-02-17T17:13:52;13.60;99.90
30037;DHT22;36325;51.512;-0.382;2023-02-17T17:16:31;13.40;99.90
30037;DHT22;36325;51.512;-0.382;2023-02-17T17:19:01;13.30;99.90
30037;DHT22;36325;51.512;-0.382;2023-02-17T17:22:01;16.40;99.90
30037;DHT22;36325;51.512;-0.382;2023-02-17T17:24:45;13.10;99.90
30037;DHT22;36325;51.512;-0.382;2023-02-17T17:27:30;13.00;99.90
30037;DHT22;36325;51.512;-0.382;2023-02-17T17:29:58;13.00;99.90
30037;DHT22;36325;51.512;-0.382;2023-02-17T17:32:30;13.00;99.90
30037;DHT22;36325;51.512;-0.382;2023-02-17T17:35:21;13.00;99.90
30037;DHT22;36325;51.512;-0.382;2023-02-17T17:37:52;12.90;99.90
30037;DHT22;36325;51.512;-0.382;2023-02-17T18:10:49;12.70;99.90
30037;DHT22;36325;51.512;-0.382;2023-02-17T18:13:22;12.70;99.90
30037;DHT22;36325;51.512;-0.382;2023-02-17T18:15:50;12.70;99.90
30037;DHT22;36325;51.512;-0.382;2023-02-17T18:18:21;12.60;99.90
30037;DHT22;36325;51.512;-0.382;2023-02-17T18:20:51;12.70;99.90
30037;DHT22;36325;51.512;-0.382;2023-02-17T18:23:38;12.70;99.90
30037;DHT22;36325;51.512;-0.382;2023-02-17T18:26:06;12.70;99.90